sensor_id;sensor_type;location;lat;lon;timestamp;P1;durP1;ratioP1;P2;durP2;ratioP2
11548;SDS011;61444;59.472;18.306;2023-10-09T00:00:25;0.40;;;0.40;;
11548;SDS011;61444;59.472;18.306;2023-10-09T00:02:57;1.17;;;0.50;;
11548;SDS011;61444;59.472;18.306;2023-10-09T00:05:07;0.67;;;0.50;;
11548;SDS011;61444;59.472;18.306;2023-10-09T00:07:26;0.60;;;0.53;;
11548;SDS011;61444;59.472;18.306;2023-10-09T00:09:37;2.17;;;0.50;;
11548;SDS011;61444;59.472;18.306;2023-10-09T00:11:52;1.63;;;0.60;;
11548;SDS011;61444;59.472;18.306;2023-10-09T00:14:03;0.90;;;0.53;;
11548;SDS011;61444;59.472;18.306;2023-10-09T00:16:14;1.17;;;0.50;;
11548;SDS011;61444;59.472;18.306;2023-10-09T00:18:30;1.07;;;0.50;;
11548;SDS011;61444;59.472;18.306;2023-10-09T00:20:40;0.87;;;0.57;;
11548;SDS011;61444;59.472;18.306;2023-10-09T00:22:52;0.73;;;0.53;;
11548;SDS011;61444;59.472;18.306;2023-10-09T00:25:03;1.23;;;0.50;;
11548;SDS011;61444;59.472;18.306;2023-10-09T00:27:21;0.90;;;0.50;;
11548;SDS011;61444;59.472;18.306;2023-10-09T00:29:33;0.60;;;0.50;;
11548;SDS011;61444;59.472;18.306;2023-10-09T00:31:51;0.60;;;0.50;;
11548;SDS011;61444;59.472;18.306;2023-10-09T00:34:02;1.17;;;0.50;;
11548;SDS011;61444;59.472;18.306;2023-10-09T00:36:11;0.50;;;0.43;;
11548;SDS011;61444;59.472;18.306;2023-10-09T00:38:25;0.60;;;0.43;;
11548;SDS011;61444;59.472;18.306;2023-10-09T00:40:40;1.03;;;0.60;;
11548;SDS011;61444;59.472;18.306;2023-10-09T00:42:53;1.17;;;0.50;;
11548;SDS011;61444;59.472;18.306;2023-10-09T00:45:03;1.43;;;0.50;;
11548;SDS011;61444;59.472;18.306;2023-10-09T00:47:15;1.10;;;0.50;;
11548;SDS011;61444;59.472;18.306;2023-10-09T00:49:33;0.90;;;0.47;;
11548;SDS011;61444;59.472;18.306;2023-10-09T00:51:46;1.50;;;0.53;;
11548;SDS011;61444;59.472;18.306;2023-10-09T00:54:04;2.50;;;0.40;;
11548;SDS011;61444;59.472;18.306;2023-10-09T00:56:21;2.20;;;0.70;;
11548;SDS011;61444;59.472;18.306;2023-10-09T00:58:48;1.07;;;0.40;;
11548;SDS011;61444;59.472;18.306;2023-10-09T01:01:02;1.03;;;0.60;;
11548;SDS011;61444;59.472;18.306;2023-10-09T01:03:24;0.53;;;0.50;;
11548;SDS011;61444;59.472;18.306;2023-10-09T01:05:35;1.20;;;0.60;;
11548;SDS011;61444;59.472;18.306;2023-10-09T01:07:44;2.77;;;0.50;;
11548;SDS011;61444;59.472;18.306;2023-10-09T01:09:56;2.87;;;0.60;;
11548;SDS011;61444;59.472;18.306;2023-10-09T01:12:16;2.30;;;0.73;;
11548;SDS011;61444;59.472;18.306;2023-10-09T01:14:25;0.73;;;0.63;;
11548;SDS011;61444;59.472;18.306;2023-10-09T01:16:34;1.87;;;0.67;;
11548;SDS011;61444;59.472;18.306;2023-10-09T01:18:44;1.40;;;0.50;;
11548;SDS011;61444;59.472;18.306;2023-10-09T01:20:56;0.90;;;0.40;;
11548;SDS011;61444;59.472;18.306;2023-10-09T01:23:06;0.70;;;0.50;;
11548;SDS011;61444;59.472;18.306;2023-10-09T01:25:15;0.77;;;0.50;;
11548;SDS011;61444;59.472;18.306;2023-10-09T01:27:26;1.90;;;0.57;;
11548;SDS011;61444;59.472;18.306;2023-10-09T01:29:39;0.70;;;0.50;;
11548;SDS011;61444;59.472;18.306;2023-10-09T01:31:48;2.00;;;0.40;;
11548;SDS011;61444;59.472;18.306;2023-10-09T01:34:03;0.77;;;0.57;;
11548;SDS011;61444;59.472;18.306;2023-10-09T01:36:16;0.87;;;0.67;;
11548;SDS011;61444;59.472;18.306;2023-10-09T01:38:26;0.80;;;0.60;;
11548;SDS011;61444;59.472;18.306;2023-10-09T01:40:47;1.53;;;0.50;;
11548;SDS011;61444;59.472;18.306;2023-10-09T01:42:58;0.67;;;0.50;;
11548;SDS011;61444;59.472;18.306;2023-10-09T01:45:10;4.23;;;0.60;;
11548;SDS011;61444;59.472;18.306;2023-10-09T01:47:34;1.57;;;0.63;;
11548;SDS011;61444;59.472;18.306;2023-10-09T01:49:44;0.60;;;0.50;;
11548;SDS011;61444;59.472;18.306;2023-10-09T01:51:56;1.90;;;0.50;;
11548;SDS011;61444;59.472;18.306;2023-10-09T01:54:12;0.50;;;0.30;;
11548;SDS011;61444;59.472;18.306;2023-10-09T01:56:40;1.40;;;0.60;;
11548;SDS011;61444;59.472;18.306;2023-10-09T01:58:52;1.53;;;0.53;;
11548;SDS011;61444;59.472;18.306;2023-10-09T02:01:04;0.70;;;0.50;;
11548;SDS011;61444;59.472;18.306;2023-10-09T02:03:13;0.70;;;0.43;;
11548;SDS011;61444;59.472;18.306;2023-10-09T02:05:22;0.47;;;0.40;;
11548;SDS011;61444;59.472;18.306;2023-10-09T02:07:32;0.63;;;0.40;;
11548;SDS011;61444;59.472;18.306;2023-10-09T02:09:49;1.23;;;0.50;;
11548;SDS011;61444;59.472;18.306;2023-10-09T02:12:00;0.70;;;0.53;;
11548;SDS011;61444;59.472;18.306;2023-10-09T02:14:09;0.90;;;0.50;;
11548;SDS011;61444;59.472;18.306;2023-10-09T02:16:25;0.83;;;0.50;;
11548;SDS011;61444;59.472;18.306;2023-10-09T02:18:35;1.73;;;0.40;;
11548;SDS011;61444;59.472;18.306;2023-10-09T02:21:04;0.93;;;0.57;;
11548;SDS011;61444;59.472;18.306;2023-10-09T02:23:20;0.93;;;0.50;;
11548;SDS011;61444;59.472;18.306;2023-10-09T02:25:37;1.23;;;0.40;;
11548;SDS011;61444;59.472;18.306;2023-10-09T02:27:49;1.10;;;0.40;;
11548;SDS011;61444;59.472;18.306;2023-10-09T02:30:00;0.80;;;0.50;;
11548;SDS011;61444;59.472;18.306;2023-10-09T02:32:18;4.33;;;0.40;;
11548;SDS011;61444;59.472;18.306;2023-10-09T02:34:32;0.73;;;0.40;;
11548;SDS011;61444;59.472;18.306;2023-10-09T02:36:44;0.60;;;0.33;;
11548;SDS011;61444;59.472;18.306;2023-10-09T02:38:56;0.83;;;0.50;;
11548;SDS011;61444;59.472;18.306;2023-10-09T02:41:07;0.53;;;0.43;;
11548;SDS011;61444;59.472;18.306;2023-10-09T02:43:27;1.80;;;0.40;;
11548;SDS011;61444;59.472;18.306;2023-10-09T02:45:40;0.90;;;0.37;;
11548;SDS011;61444;59.472;18.306;2023-10-09T02:47:57;0.83;;;0.40;;
11548;SDS011;61444;59.472;18.306;2023-10-09T02:50:07;0.47;;;0.40;;
11548;SDS011;61444;59.472;18.306;2023-10-09T02:52:26;0.90;;;0.50;;
11548;SDS011;61444;59.472;18.306;2023-10-09T02:54:40;1.23;;;0.50;;
11548;SDS011;61444;59.472;18.306;2023-10-09T02:56:51;0.53;;;0.40;;
11548;SDS011;61444;59.472;18.306;2023-10-09T02:59:04;1.40;;;0.50;;
11548;SDS011;61444;59.472;18.306;2023-10-09T03:01:13;1.63;;;0.60;;
11548;SDS011;61444;59.472;18.306;2023-10-09T03:03:22;0.60;;;0.50;;
11548;SDS011;61444;59.472;18.306;2023-10-09T03:05:32;0.80;;;0.47;;
11548;SDS011;61444;59.472;18.306;2023-10-09T03:07:45;1.23;;;0.50;;
11548;SDS011;61444;59.472;18.306;2023-10-09T03:09:55;0.93;;;0.40;;
11548;SDS011;61444;59.472;18.306;2023-10-09T03:12:06;2.43;;;0.67;;
11548;SDS011;61444;59.472;18.306;2023-10-09T03:14:16;1.50;;;0.40;;
11548;SDS011;61444;59.472;18.306;2023-10-09T03:16:27;1.00;;;0.50;;
11548;SDS011;61444;59.472;18.306;2023-10-09T03:18:35;1.00;;;0.40;;
11548;SDS011;61444;59.472;18.306;2023-10-09T03:20:44;0.70;;;0.50;;
11548;SDS011;61444;59.472;18.306;2023-10-09T03:22:54;0.70;;;0.40;;
11548;SDS011;61444;59.472;18.306;2023-10-09T03:25:04;1.80;;;0.50;;
11548;SDS011;61444;59.472;18.306;2023-10-09T03:27:19;0.50;;;0.40;;
11548;SDS011;61444;59.472;18.306;2023-10-09T03:29:28;1.67;;;0.53;;
11548;SDS011;61444;59.472;18.306;2023-10-09T03:31:35;0.60;;;0.40;;
11548;SDS011;61444;59.472;18.306;2023-10-09T03:33:44;0.50;;;0.40;;
11548;SDS011;61444;59.472;18.306;2023-10-09T03:35:54;0.50;;;0.33;;
11548;SDS011;61444;59.472;18.306;2023-10-09T03:38:02;1.80;;;0.43;;
11548;SDS011;61444;59.472;18.306;2023-10-09T03:40:18;0.80;;;0.50;;
11548;SDS011;61444;59.472;18.306;2023-10-09T03:42:29;1.13;;;0.40;;
11548;SDS011;61444;59.472;18.306;2023-10-09T03:44:40;0.40;;;0.30;;
11548;SDS011;61444;59.472;18.306;2023-10-09T03:46:54;1.27;;;0.50;;
11548;SDS011;61444;59.472;18.306;2023-10-09T03:49:03;3.17;;;0.50;;
11548;SDS011;61444;59.472;18.306;2023-10-09T03:51:17;0.63;;;0.40;;
11548;SDS011;61444;59.472;18.306;2023-10-09T03:53:28;1.40;;;0.30;;
11548;SDS011;61444;59.472;18.306;2023-10-09T03:55:38;1.03;;;0.40;;
11548;SDS011;61444;59.472;18.306;2023-10-09T03:57:50;0.50;;;0.37;;
11548;SDS011;61444;59.472;18.306;2023-10-09T03:59:58;0.33;;;0.33;;
11548;SDS011;61444;59.472;18.306;2023-10-09T04:02:09;0.57;;;0.37;;
11548;SDS011;61444;59.472;18.306;2023-10-09T04:04:18;0.30;;;0.30;;
11548;SDS011;61444;59.472;18.306;2023-10-09T04:06:30;1.00;;;0.57;;
11548;SDS011;61444;59.472;18.306;2023-10-09T04:08:40;0.60;;;0.33;;
11548;SDS011;61444;59.472;18.306;2023-10-09T04:10:57;0.40;;;0.33;;
11548;SDS011;61444;59.472;18.306;2023-10-09T04:13:12;1.27;;;0.67;;
11548;SDS011;61444;59.472;18.306;2023-10-09T04:15:24;0.50;;;0.40;;
11548;SDS011;61444;59.472;18.306;2023-10-09T04:17:37;0.40;;;0.30;;
11548;SDS011;61444;59.472;18.306;2023-10-09T04:19:50;0.50;;;0.40;;
11548;SDS011;61444;59.472;18.306;2023-10-09T04:22:19;0.50;;;0.37;;
11548;SDS011;61444;59.472;18.306;2023-10-09T04:24:34;0.60;;;0.40;;
11548;SDS011;61444;59.472;18.306;2023-10-09T04:26:48;0.50;;;0.40;;
11548;SDS011;61444;59.472;18.306;2023-10-09T04:29:04;0.63;;;0.50;;
11548;SDS011;61444;59.472;18.306;2023-10-09T04:31:13;0.53;;;0.40;;
11548;SDS011;61444;59.472;18.306;2023-10-09T04:33:24;0.50;;;0.30;;
11548;SDS011;61444;59.472;18.306;2023-10-09T04:35:47;1.17;;;0.50;;
11548;SDS011;61444;59.472;18.306;2023-10-09T04:38:19;1.60;;;0.40;;
11548;SDS011;61444;59.472;18.306;2023-10-09T04:40:32;0.53;;;0.40;;
11548;SDS011;61444;59.472;18.306;2023-10-09T04:42:58;0.40;;;0.30;;
11548;SDS011;61444;59.472;18.306;2023-10-09T04:45:08;2.20;;;0.50;;
11548;SDS011;61444;59.472;18.306;2023-10-09T04:47:48;0.60;;;0.50;;
11548;SDS011;61444;59.472;18.306;2023-10-09T04:50:06;0.60;;;0.47;;
11548;SDS011;61444;59.472;18.306;2023-10-09T04:52:18;0.87;;;0.60;;
11548;SDS011;61444;59.472;18.306;2023-10-09T04:54:46;0.90;;;0.60;;
11548;SDS011;61444;59.472;18.306;2023-10-09T04:57:20;0.50;;;0.40;;
11548;SDS011;61444;59.472;18.306;2023-10-09T04:59:32;0.87;;;0.50;;
11548;SDS011;61444;59.472;18.306;2023-10-09T05:01:52;0.87;;;0.60;;
11548;SDS011;61444;59.472;18.306;2023-10-09T05:04:11;1.40;;;0.60;;
11548;SDS011;61444;59.472;18.306;2023-10-09T05:06:45;0.30;;;0.30;;
11548;SDS011;61444;59.472;18.306;2023-10-09T05:09:02;3.13;;;0.70;;
11548;SDS011;61444;59.472;18.306;2023-10-09T05:11:21;1.43;;;0.80;;
11548;SDS011;61444;59.472;18.306;2023-10-09T05:14:00;2.97;;;1.03;;
11548;SDS011;61444;59.472;18.306;2023-10-09T05:16:19;1.00;;;0.70;;
11548;SDS011;61444;59.472;18.306;2023-10-09T05:18:32;1.10;;;0.80;;
11548;SDS011;61444;59.472;18.306;2023-10-09T05:20:43;2.40;;;0.80;;
11548;SDS011;61444;59.472;18.306;2023-10-09T05:23:26;1.67;;;0.67;;
11548;SDS011;61444;59.472;18.306;2023-10-09T05:25:34;1.17;;;0.60;;
11548;SDS011;61444;59.472;18.306;2023-10-09T05:28:02;1.70;;;0.60;;
11548;SDS011;61444;59.472;18.306;2023-10-09T05:30:30;1.80;;;0.40;;
11548;SDS011;61444;59.472;18.306;2023-10-09T05:32:40;1.07;;;0.50;;
11548;SDS011;61444;59.472;18.306;2023-10-09T05:34:55;1.20;;;0.70;;
11548;SDS011;61444;59.472;18.306;2023-10-09T05:37:22;0.70;;;0.40;;
11548;SDS011;61444;59.472;18.306;2023-10-09T05:39:33;1.33;;;0.50;;
11548;SDS011;61444;59.472;18.306;2023-10-09T05:41:48;5.50;;;0.87;;
11548;SDS011;61444;59.472;18.306;2023-10-09T05:43:59;1.23;;;0.70;;
11548;SDS011;61444;59.472;18.306;2023-10-09T05:46:25;2.00;;;1.07;;
11548;SDS011;61444;59.472;18.306;2023-10-09T05:48:42;3.93;;;0.90;;
11548;SDS011;61444;59.472;18.306;2023-10-09T05:51:01;2.13;;;1.37;;
11548;SDS011;61444;59.472;18.306;2023-10-09T05:53:40;4.97;;;1.50;;
11548;SDS011;61444;59.472;18.306;2023-10-09T05:56:10;3.07;;;1.20;;
11548;SDS011;61444;59.472;18.306;2023-10-09T05:58:37;1.67;;;1.00;;
11548;SDS011;61444;59.472;18.306;2023-10-09T06:01:03;1.27;;;0.90;;
11548;SDS011;61444;59.472;18.306;2023-10-09T06:03:29;2.47;;;0.73;;
11548;SDS011;61444;59.472;18.306;2023-10-09T06:05:55;1.37;;;0.90;;
11548;SDS011;61444;59.472;18.306;2023-10-09T06:08:11;2.20;;;1.27;;
11548;SDS011;61444;59.472;18.306;2023-10-09T06:10:20;1.97;;;1.23;;
11548;SDS011;61444;59.472;18.306;2023-10-09T06:12:46;1.53;;;0.53;;
11548;SDS011;61444;59.472;18.306;2023-10-09T06:15:02;2.20;;;0.70;;
11548;SDS011;61444;59.472;18.306;2023-10-09T06:17:27;0.63;;;0.50;;
11548;SDS011;61444;59.472;18.306;2023-10-09T06:19:50;1.47;;;0.77;;
11548;SDS011;61444;59.472;18.306;2023-10-09T06:22:05;1.70;;;0.77;;
11548;SDS011;61444;59.472;18.306;2023-10-09T06:24:31;0.83;;;0.50;;
11548;SDS011;61444;59.472;18.306;2023-10-09T06:26:48;0.80;;;0.57;;
11548;SDS011;61444;59.472;18.306;2023-10-09T06:29:31;1.97;;;0.67;;
11548;SDS011;61444;59.472;18.306;2023-10-09T06:31:43;1.90;;;0.37;;
11548;SDS011;61444;59.472;18.306;2023-10-09T06:34:04;1.17;;;0.60;;
11548;SDS011;61444;59.472;18.306;2023-10-09T06:36:22;0.40;;;0.30;;
11548;SDS011;61444;59.472;18.306;2023-10-09T06:38:37;1.37;;;0.50;;
11548;SDS011;61444;59.472;18.306;2023-10-09T06:40:58;0.87;;;0.43;;
11548;SDS011;61444;59.472;18.306;2023-10-09T06:43:41;0.87;;;0.40;;
11548;SDS011;61444;59.472;18.306;2023-10-09T06:46:01;1.30;;;0.60;;
11548;SDS011;61444;59.472;18.306;2023-10-09T06:48:24;1.53;;;0.60;;
11548;SDS011;61444;59.472;18.306;2023-10-09T06:50:51;1.17;;;0.63;;
11548;SDS011;61444;59.472;18.306;2023-10-09T06:53:02;1.50;;;0.60;;
11548;SDS011;61444;59.472;18.306;2023-10-09T06:55:35;4.40;;;0.60;;
11548;SDS011;61444;59.472;18.306;2023-10-09T06:57:55;1.83;;;0.60;;
11548;SDS011;61444;59.472;18.306;2023-10-09T07:00:08;2.30;;;0.50;;
11548;SDS011;61444;59.472;18.306;2023-10-09T07:02:38;1.33;;;0.50;;
11548;SDS011;61444;59.472;18.306;2023-10-09T07:04:54;1.00;;;0.50;;
11548;SDS011;61444;59.472;18.306;2023-10-09T07:07:02;0.60;;;0.40;;
11548;SDS011;61444;59.472;18.306;2023-10-09T07:09:14;1.40;;;0.50;;
11548;SDS011;61444;59.472;18.306;2023-10-09T07:11:28;1.83;;;0.40;;
11548;SDS011;61444;59.472;18.306;2023-10-09T07:13:50;1.30;;;0.60;;
11548;SDS011;61444;59.472;18.306;2023-10-09T07:16:02;1.27;;;0.60;;
11548;SDS011;61444;59.472;18.306;2023-10-09T07:18:29;1.00;;;0.53;;
11548;SDS011;61444;59.472;18.306;2023-10-09T07:20:56;1.50;;;0.70;;
11548;SDS011;61444;59.472;18.306;2023-10-09T07:23:17;2.60;;;1.03;;
11548;SDS011;61444;59.472;18.306;2023-10-09T07:25:27;3.17;;;0.80;;
11548;SDS011;61444;59.472;18.306;2023-10-09T07:27:47;1.40;;;0.70;;
11548;SDS011;61444;59.472;18.306;2023-10-09T07:29:58;0.70;;;0.70;;
11548;SDS011;61444;59.472;18.306;2023-10-09T07:32:07;1.23;;;0.70;;
11548;SDS011;61444;59.472;18.306;2023-10-09T07:34:30;2.80;;;0.80;;
11548;SDS011;61444;59.472;18.306;2023-10-09T07:36:38;0.77;;;0.70;;
11548;SDS011;61444;59.472;18.306;2023-10-09T07:38:55;0.80;;;0.60;;
11548;SDS011;61444;59.472;18.306;2023-10-09T07:41:03;1.17;;;0.80;;
11548;SDS011;61444;59.472;18.306;2023-10-09T07:43:26;1.27;;;0.90;;
11548;SDS011;61444;59.472;18.306;2023-10-09T07:45:42;2.37;;;0.80;;
11548;SDS011;61444;59.472;18.306;2023-10-09T07:48:16;1.27;;;0.73;;
11548;SDS011;61444;59.472;18.306;2023-10-09T07:50:37;0.80;;;0.63;;
11548;SDS011;61444;59.472;18.306;2023-10-09T07:52:48;2.30;;;0.70;;
11548;SDS011;61444;59.472;18.306;2023-10-09T07:54:58;1.30;;;0.70;;
11548;SDS011;61444;59.472;18.306;2023-10-09T07:57:10;3.07;;;0.60;;
11548;SDS011;61444;59.472;18.306;2023-10-09T07:59:22;1.60;;;0.70;;
11548;SDS011;61444;59.472;18.306;2023-10-09T08:01:31;0.60;;;0.60;;
11548;SDS011;61444;59.472;18.306;2023-10-09T08:03:42;1.87;;;0.50;;
11548;SDS011;61444;59.472;18.306;2023-10-09T08:05:57;1.10;;;0.60;;
11548;SDS011;61444;59.472;18.306;2023-10-09T08:08:13;3.77;;;0.70;;
11548;SDS011;61444;59.472;18.306;2023-10-09T08:10:45;2.00;;;1.20;;
11548;SDS011;61444;59.472;18.306;2023-10-09T08:13:11;1.60;;;0.97;;
11548;SDS011;61444;59.472;18.306;2023-10-09T08:15:40;4.20;;;1.30;;
11548;SDS011;61444;59.472;18.306;2023-10-09T08:18:00;1.30;;;0.90;;
11548;SDS011;61444;59.472;18.306;2023-10-09T08:20:16;2.07;;;1.00;;
11548;SDS011;61444;59.472;18.306;2023-10-09T08:22:33;2.93;;;1.40;;
11548;SDS011;61444;59.472;18.306;2023-10-09T08:24:56;1.53;;;0.80;;
11548;SDS011;61444;59.472;18.306;2023-10-09T08:27:06;0.80;;;0.60;;
11548;SDS011;61444;59.472;18.306;2023-10-09T08:29:32;1.80;;;1.00;;
11548;SDS011;61444;59.472;18.306;2023-10-09T08:31:42;2.00;;;0.70;;
11548;SDS011;61444;59.472;18.306;2023-10-09T08:33:53;3.20;;;0.90;;
11548;SDS011;61444;59.472;18.306;2023-10-09T08:36:09;1.50;;;0.60;;
11548;SDS011;61444;59.472;18.306;2023-10-09T08:38:23;1.63;;;0.60;;
11548;SDS011;61444;59.472;18.306;2023-10-09T08:40:33;1.43;;;0.70;;
11548;SDS011;61444;59.472;18.306;2023-10-09T08:42:44;0.87;;;0.60;;
11548;SDS011;61444;59.472;18.306;2023-10-09T08:44:56;1.43;;;0.77;;
11548;SDS011;61444;59.472;18.306;2023-10-09T08:47:10;0.83;;;0.63;;
11548;SDS011;61444;59.472;18.306;2023-10-09T08:49:19;0.67;;;0.53;;
11548;SDS011;61444;59.472;18.306;2023-10-09T08:51:28;1.90;;;0.80;;
11548;SDS011;61444;59.472;18.306;2023-10-09T08:53:40;2.40;;;0.67;;
11548;SDS011;61444;59.472;18.306;2023-10-09T08:55:54;0.50;;;0.50;;
11548;SDS011;61444;59.472;18.306;2023-10-09T08:58:04;0.97;;;0.70;;
11548;SDS011;61444;59.472;18.306;2023-10-09T09:00:17;2.97;;;0.60;;
11548;SDS011;61444;59.472;18.306;2023-10-09T09:02:28;1.47;;;0.80;;
11548;SDS011;61444;59.472;18.306;2023-10-09T09:04:39;1.50;;;0.87;;
11548;SDS011;61444;59.472;18.306;2023-10-09T09:06:48;1.73;;;1.07;;
11548;SDS011;61444;59.472;18.306;2023-10-09T09:08:58;3.40;;;1.00;;
11548;SDS011;61444;59.472;18.306;2023-10-09T09:11:21;1.83;;;0.90;;
11548;SDS011;61444;59.472;18.306;2023-10-09T09:13:31;2.07;;;0.87;;
11548;SDS011;61444;59.472;18.306;2023-10-09T09:15:40;2.30;;;0.80;;
11548;SDS011;61444;59.472;18.306;2023-10-09T09:18:03;0.70;;;0.60;;
11548;SDS011;61444;59.472;18.306;2023-10-09T09:20:19;0.80;;;0.63;;
11548;SDS011;61444;59.472;18.306;2023-10-09T09:22:31;0.70;;;0.40;;
11548;SDS011;61444;59.472;18.306;2023-10-09T09:25:01;0.80;;;0.80;;
11548;SDS011;61444;59.472;18.306;2023-10-09T09:27:15;1.10;;;0.67;;
11548;SDS011;61444;59.472;18.306;2023-10-09T09:29:38;1.60;;;0.73;;
11548;SDS011;61444;59.472;18.306;2023-10-09T09:31:53;0.90;;;0.60;;
11548;SDS011;61444;59.472;18.306;2023-10-09T09:34:04;2.63;;;0.70;;
11548;SDS011;61444;59.472;18.306;2023-10-09T09:36:19;1.50;;;0.90;;
11548;SDS011;61444;59.472;18.306;2023-10-09T09:38:33;1.43;;;0.70;;
11548;SDS011;61444;59.472;18.306;2023-10-09T09:40:57;0.93;;;0.77;;
11548;SDS011;61444;59.472;18.306;2023-10-09T09:43:10;1.00;;;0.70;;
11548;SDS011;61444;59.472;18.306;2023-10-09T09:45:30;1.43;;;0.80;;
11548;SDS011;61444;59.472;18.306;2023-10-09T09:47:40;1.07;;;0.70;;
11548;SDS011;61444;59.472;18.306;2023-10-09T09:49:58;1.20;;;0.70;;
11548;SDS011;61444;59.472;18.306;2023-10-09T09:52:08;1.80;;;0.63;;
11548;SDS011;61444;59.472;18.306;2023-10-09T09:54:16;1.67;;;0.90;;
11548;SDS011;61444;59.472;18.306;2023-10-09T09:56:34;1.83;;;0.90;;
11548;SDS011;61444;59.472;18.306;2023-10-09T09:58:46;1.13;;;0.80;;
11548;SDS011;61444;59.472;18.306;2023-10-09T10:01:01;1.30;;;0.70;;
11548;SDS011;61444;59.472;18.306;2023-10-09T10:03:15;0.70;;;0.63;;
11548;SDS011;61444;59.472;18.306;2023-10-09T10:05:26;0.87;;;0.60;;
11548;SDS011;61444;59.472;18.306;2023-10-09T10:07:36;1.10;;;0.70;;
11548;SDS011;61444;59.472;18.306;2023-10-09T10:09:50;2.30;;;0.60;;
11548;SDS011;61444;59.472;18.306;2023-10-09T10:12:06;0.97;;;0.70;;
11548;SDS011;61444;59.472;18.306;2023-10-09T10:14:16;0.97;;;0.70;;
11548;SDS011;61444;59.472;18.306;2023-10-09T10:16:40;0.73;;;0.67;;
11548;SDS011;61444;59.472;18.306;2023-10-09T10:19:08;1.73;;;0.70;;
11548;SDS011;61444;59.472;18.306;2023-10-09T10:21:29;1.10;;;0.77;;
11548;SDS011;61444;59.472;18.306;2023-10-09T10:23:45;1.57;;;1.00;;
11548;SDS011;61444;59.472;18.306;2023-10-09T10:25:58;1.33;;;0.77;;
11548;SDS011;61444;59.472;18.306;2023-10-09T10:28:26;0.67;;;0.57;;
11548;SDS011;61444;59.472;18.306;2023-10-09T10:30:49;1.00;;;0.80;;
11548;SDS011;61444;59.472;18.306;2023-10-09T10:33:00;0.70;;;0.60;;
11548;SDS011;61444;59.472;18.306;2023-10-09T10:35:16;0.70;;;0.60;;
11548;SDS011;61444;59.472;18.306;2023-10-09T10:37:34;2.33;;;1.00;;
11548;SDS011;61444;59.472;18.306;2023-10-09T10:39:49;1.27;;;0.70;;
11548;SDS011;61444;59.472;18.306;2023-10-09T10:42:05;0.60;;;0.60;;
11548;SDS011;61444;59.472;18.306;2023-10-09T10:44:17;0.90;;;0.67;;
11548;SDS011;61444;59.472;18.306;2023-10-09T10:46:44;1.00;;;0.70;;
11548;SDS011;61444;59.472;18.306;2023-10-09T10:48:59;1.00;;;0.60;;
11548;SDS011;61444;59.472;18.306;2023-10-09T10:51:16;0.77;;;0.60;;
11548;SDS011;61444;59.472;18.306;2023-10-09T10:53:28;2.10;;;0.63;;
11548;SDS011;61444;59.472;18.306;2023-10-09T10:55:54;0.70;;;0.70;;
11548;SDS011;61444;59.472;18.306;2023-10-09T10:58:08;1.93;;;0.70;;
11548;SDS011;61444;59.472;18.306;2023-10-09T11:00:32;1.30;;;0.80;;
11548;SDS011;61444;59.472;18.306;2023-10-09T11:02:58;0.63;;;0.63;;
11548;SDS011;61444;59.472;18.306;2023-10-09T11:05:20;0.80;;;0.70;;
11548;SDS011;61444;59.472;18.306;2023-10-09T11:07:33;0.97;;;0.67;;
11548;SDS011;61444;59.472;18.306;2023-10-09T11:09:45;0.83;;;0.50;;
11548;SDS011;61444;59.472;18.306;2023-10-09T11:12:08;0.57;;;0.57;;
11548;SDS011;61444;59.472;18.306;2023-10-09T11:14:28;1.80;;;0.50;;
11548;SDS011;61444;59.472;18.306;2023-10-09T11:16:50;0.60;;;0.60;;
11548;SDS011;61444;59.472;18.306;2023-10-09T11:19:05;2.70;;;0.90;;
11548;SDS011;61444;59.472;18.306;2023-10-09T11:21:20;0.53;;;0.53;;
11548;SDS011;61444;59.472;18.306;2023-10-09T11:23:39;2.23;;;0.60;;
11548;SDS011;61444;59.472;18.306;2023-10-09T11:26:00;2.40;;;0.77;;
11548;SDS011;61444;59.472;18.306;2023-10-09T11:28:27;1.17;;;0.70;;
11548;SDS011;61444;59.472;18.306;2023-10-09T11:30:36;1.10;;;0.70;;
11548;SDS011;61444;59.472;18.306;2023-10-09T11:32:48;0.77;;;0.77;;
11548;SDS011;61444;59.472;18.306;2023-10-09T11:35:09;3.50;;;0.80;;
11548;SDS011;61444;59.472;18.306;2023-10-09T11:37:19;1.80;;;0.77;;
11548;SDS011;61444;59.472;18.306;2023-10-09T11:39:45;0.63;;;0.60;;
11548;SDS011;61444;59.472;18.306;2023-10-09T11:42:02;0.93;;;0.60;;
11548;SDS011;61444;59.472;18.306;2023-10-09T11:44:14;0.70;;;0.63;;
11548;SDS011;61444;59.472;18.306;2023-10-09T11:46:30;2.40;;;0.70;;
11548;SDS011;61444;59.472;18.306;2023-10-09T11:49:03;0.93;;;0.73;;
11548;SDS011;61444;59.472;18.306;2023-10-09T11:51:33;0.70;;;0.70;;
11548;SDS011;61444;59.472;18.306;2023-10-09T11:53:45;1.23;;;0.80;;
11548;SDS011;61444;59.472;18.306;2023-10-09T11:55:56;0.90;;;0.70;;
11548;SDS011;61444;59.472;18.306;2023-10-09T11:58:05;1.67;;;0.70;;
11548;SDS011;61444;59.472;18.306;2023-10-09T12:00:18;2.37;;;0.70;;
11548;SDS011;61444;59.472;18.306;2023-10-09T12:02:36;0.93;;;0.67;;
11548;SDS011;61444;59.472;18.306;2023-10-09T12:04:52;1.03;;;0.60;;
11548;SDS011;61444;59.472;18.306;2023-10-09T12:07:02;0.70;;;0.70;;
11548;SDS011;61444;59.472;18.306;2023-10-09T12:09:14;1.00;;;0.90;;
11548;SDS011;61444;59.472;18.306;2023-10-09T12:11:30;0.60;;;0.50;;
11548;SDS011;61444;59.472;18.306;2023-10-09T12:13:39;0.70;;;0.63;;
11548;SDS011;61444;59.472;18.306;2023-10-09T12:15:49;1.20;;;0.70;;
11548;SDS011;61444;59.472;18.306;2023-10-09T12:18:00;1.10;;;0.73;;
11548;SDS011;61444;59.472;18.306;2023-10-09T12:20:10;1.47;;;0.70;;
11548;SDS011;61444;59.472;18.306;2023-10-09T12:22:36;0.50;;;0.50;;
11548;SDS011;61444;59.472;18.306;2023-10-09T12:24:47;1.47;;;0.70;;
11548;SDS011;61444;59.472;18.306;2023-10-09T12:26:56;0.53;;;0.53;;
11548;SDS011;61444;59.472;18.306;2023-10-09T12:29:04;0.60;;;0.60;;
11548;SDS011;61444;59.472;18.306;2023-10-09T12:31:18;0.70;;;0.70;;
11548;SDS011;61444;59.472;18.306;2023-10-09T12:33:30;1.33;;;0.70;;
11548;SDS011;61444;59.472;18.306;2023-10-09T12:35:40;1.87;;;0.70;;
11548;SDS011;61444;59.472;18.306;2023-10-09T12:37:52;1.67;;;0.80;;
11548;SDS011;61444;59.472;18.306;2023-10-09T12:40:01;1.20;;;0.67;;
11548;SDS011;61444;59.472;18.306;2023-10-09T12:42:11;1.10;;;0.60;;
11548;SDS011;61444;59.472;18.306;2023-10-09T12:44:23;1.00;;;0.70;;
11548;SDS011;61444;59.472;18.306;2023-10-09T12:46:33;0.50;;;0.50;;
11548;SDS011;61444;59.472;18.306;2023-10-09T12:48:45;0.70;;;0.70;;
11548;SDS011;61444;59.472;18.306;2023-10-09T12:50:55;2.37;;;0.73;;
11548;SDS011;61444;59.472;18.306;2023-10-09T12:53:04;0.70;;;0.70;;
11548;SDS011;61444;59.472;18.306;2023-10-09T12:55:14;0.70;;;0.70;;
11548;SDS011;61444;59.472;18.306;2023-10-09T12:57:27;0.93;;;0.70;;
11548;SDS011;61444;59.472;18.306;2023-10-09T12:59:36;1.17;;;0.67;;
11548;SDS011;61444;59.472;18.306;2023-10-09T13:01:49;1.37;;;0.70;;
11548;SDS011;61444;59.472;18.306;2023-10-09T13:03:59;1.13;;;0.80;;
11548;SDS011;61444;59.472;18.306;2023-10-09T13:06:09;0.70;;;0.70;;
11548;SDS011;61444;59.472;18.306;2023-10-09T13:08:19;1.20;;;0.73;;
11548;SDS011;61444;59.472;18.306;2023-10-09T13:10:27;0.70;;;0.67;;
11548;SDS011;61444;59.472;18.306;2023-10-09T13:12:38;0.87;;;0.70;;
11548;SDS011;61444;59.472;18.306;2023-10-09T13:14:48;0.80;;;0.77;;
11548;SDS011;61444;59.472;18.306;2023-10-09T13:16:57;1.50;;;0.73;;
11548;SDS011;61444;59.472;18.306;2023-10-09T13:19:06;0.80;;;0.70;;
11548;SDS011;61444;59.472;18.306;2023-10-09T13:21:18;0.73;;;0.73;;
11548;SDS011;61444;59.472;18.306;2023-10-09T13:23:27;0.60;;;0.60;;